createdAt,value
2023-01-27T00:00:41.746Z,1017.80
2023-01-27T00:01:41.710Z,1017.78
2023-01-27T00:02:41.694Z,1017.90
2023-01-27T00:03:41.700Z,1017.90
2023-01-27T00:04:41.622Z,1017.84
2023-01-27T00:05:41.588Z,1017.82
2023-01-27T00:06:41.568Z,1017.84
2023-01-27T00:07:41.532Z,1017.91
2023-01-27T00:08:41.537Z,1017.93
2023-01-27T00:09:41.477Z,1017.91
2023-01-27T00:10:41.457Z,1017.97
2023-01-27T00:11:41.418Z,1017.96
2023-01-27T00:12:41.405Z,1017.99
2023-01-27T00:13:41.374Z,1018.01
2023-01-27T00:14:41.345Z,1018.01
2023-01-27T00:15:41.349Z,1018.03
2023-01-27T00:16:41.283Z,1018.02
2023-01-27T00:17:41.258Z,1018.04
2023-01-27T00:18:41.231Z,1018.04
2023-01-27T00:19:41.199Z,1018.11
2023-01-27T00:20:41.198Z,1018.14
2023-01-27T00:21:41.140Z,1018.11
2023-01-27T00:22:41.116Z,1018.12
2023-01-27T00:23:41.086Z,1018.13
2023-01-27T00:24:41.103Z,1018.20
2023-01-27T00:25:41.032Z,1018.18
2023-01-27T00:26:40.999Z,1018.18
2023-01-27T00:27:40.966Z,1018.22
2023-01-27T00:28:40.943Z,1018.20
2023-01-27T00:29:40.913Z,1018.22
2023-01-27T00:30:40.947Z,1018.22
2023-01-27T00:31:40.950Z,1018.24
2023-01-27T00:32:40.845Z,1018.22
2023-01-27T00:33:40.803Z,1018.24
2023-01-27T00:34:40.782Z,1018.23
2023-01-27T00:35:40.768Z,1018.25
2023-01-27T00:36:40.736Z,1018.23
2023-01-27T00:37:40.690Z,1018.24
2023-01-27T00:38:40.699Z,1018.24
2023-01-27T00:39:40.669Z,1018.20
2023-01-27T00:40:40.627Z,1018.21
2023-01-27T00:41:40.585Z,1018.26
2023-01-27T00:42:40.557Z,1018.22
2023-01-27T00:43:40.523Z,1018.25
2023-01-27T00:44:40.496Z,1018.18
2023-01-27T00:45:40.486Z,1018.17
2023-01-27T00:46:40.595Z,1018.17
2023-01-27T00:47:40.407Z,1018.19
2023-01-27T00:48:40.378Z,1018.13
2023-01-27T00:49:40.348Z,1018.10
2023-01-27T00:50:40.324Z,1018.14
2023-01-27T00:51:40.297Z,1018.16
2023-01-27T00:52:40.266Z,1018.09
2023-01-27T00:53:40.238Z,1018.11
2023-01-27T00:54:40.211Z,1018.11
2023-01-27T00:55:40.187Z,1018.14
2023-01-27T00:56:40.175Z,1018.16
2023-01-27T00:57:40.129Z,1018.12
2023-01-27T00:58:40.093Z,1018.14
2023-01-27T00:59:40.092Z,1018.15
2023-01-27T01:00:40.042Z,1018.13
2023-01-27T01:01:40.094Z,1018.09
2023-01-27T01:02:40.036Z,1018.12
2023-01-27T01:03:39.957Z,1018.14
2023-01-27T01:04:39.932Z,1018.13
2023-01-27T01:05:39.903Z,1018.14
2023-01-27T01:06:39.871Z,1018.14
2023-01-27T01:07:39.840Z,1018.16
2023-01-27T01:08:39.817Z,1018.20
2023-01-27T01:09:39.788Z,1018.15
2023-01-27T01:10:39.755Z,1018.16
2023-01-27T01:11:39.731Z,1018.08
2023-01-27T01:12:39.726Z,1018.11
2023-01-27T01:13:39.682Z,1018.06
2023-01-27T01:14:39.644Z,1018.12
2023-01-27T01:15:39.618Z,1018.14
2023-01-27T01:16:39.602Z,1018.10
2023-01-27T01:17:39.563Z,1018.16
2023-01-27T01:18:39.560Z,1018.14
2023-01-27T01:19:39.506Z,1018.16
2023-01-27T01:20:39.485Z,1018.17
2023-01-27T01:21:40.865Z,1018.22
2023-01-27T01:22:39.419Z,1018.29
2023-01-27T01:23:39.410Z,1018.24
2023-01-27T01:24:39.364Z,1018.26
2023-01-27T01:25:39.342Z,1018.28
2023-01-27T01:26:39.306Z,1018.28
2023-01-27T01:27:39.284Z,1018.24
2023-01-27T01:28:39.276Z,1018.26
2023-01-27T01:29:39.224Z,1018.27
2023-01-27T01:30:39.236Z,1018.26
2023-01-27T01:31:39.299Z,1018.31
2023-01-27T01:32:39.139Z,1018.32
2023-01-27T01:33:39.121Z,1018.30
2023-01-27T01:34:39.095Z,1018.33
2023-01-27T01:35:39.087Z,1018.34
2023-01-27T01:36:39.036Z,1018.32
2023-01-27T01:37:38.999Z,1018.30
2023-01-27T01:38:38.965Z,1018.31
2023-01-27T01:39:38.944Z,1018.29
2023-01-27T01:40:38.913Z,1018.30
2023-01-27T01:41:38.891Z,1018.31
2023-01-27T01:42:38.852Z,1018.28
2023-01-27T01:43:38.838Z,1018.34
2023-01-27T01:44:38.817Z,1018.33
2023-01-27T01:45:38.770Z,1018.36
2023-01-27T01:46:38.830Z,1018.35
2023-01-27T01:47:38.717Z,1018.32
2023-01-27T01:48:38.700Z,1018.36
2023-01-27T01:49:38.663Z,1018.30
2023-01-27T01:50:38.657Z,1018.30
2023-01-27T01:51:38.607Z,1018.30
2023-01-27T01:52:38.580Z,1018.37
2023-01-27T01:53:38.558Z,1018.33
2023-01-27T01:54:38.515Z,1018.35
2023-01-27T01:55:38.499Z,1018.38
2023-01-27T01:56:38.463Z,1018.34
2023-01-27T01:57:38.439Z,1018.32
2023-01-27T01:58:38.408Z,1018.35
2023-01-27T01:59:38.379Z,1018.30
2023-01-27T02:00:38.374Z,1018.33
2023-01-27T02:01:38.324Z,1018.33
2023-01-27T02:02:38.339Z,1018.32
2023-01-27T02:03:38.272Z,1018.37
2023-01-27T02:04:38.243Z,1018.34
2023-01-27T02:05:38.222Z,1018.35
2023-01-27T02:06:38.179Z,1018.38
2023-01-27T02:07:38.157Z,1018.37
2023-01-27T02:08:38.128Z,1018.36
2023-01-27T02:09:38.100Z,1018.38
2023-01-27T02:10:38.070Z,1018.40
2023-01-27T02:11:38.045Z,1018.38
2023-01-27T02:12:38.015Z,1018.39
2023-01-27T02:13:37.992Z,1018.39
2023-01-27T02:14:37.972Z,1018.39
2023-01-27T02:15:37.931Z,1018.44
2023-01-27T02:16:37.996Z,1018.40
2023-01-27T02:17:37.873Z,1018.40
2023-01-27T02:18:37.841Z,1018.34
2023-01-27T02:19:37.822Z,1018.35
2023-01-27T02:20:37.791Z,1018.34
2023-01-27T02:21:37.765Z,1018.38
2023-01-27T02:22:37.730Z,1018.39
2023-01-27T02:23:37.703Z,1018.33
2023-01-27T02:24:37.682Z,1018.35
2023-01-27T02:25:37.648Z,1018.33
2023-01-27T02:26:37.622Z,1018.32
2023-01-27T02:27:37.595Z,1018.30
2023-01-27T02:28:37.562Z,1018.29
2023-01-27T02:29:37.540Z,1018.32
2023-01-27T02:30:37.616Z,1018.31
2023-01-27T02:31:37.628Z,1018.33
2023-01-27T02:32:39.321Z,1018.33
2023-01-27T02:33:37.426Z,1018.31
2023-01-27T02:34:37.393Z,1018.33
2023-01-27T02:35:37.364Z,1018.30
2023-01-27T02:36:37.345Z,1018.28
2023-01-27T02:37:37.309Z,1018.32
2023-01-27T02:38:37.278Z,1018.32
2023-01-27T02:39:37.256Z,1018.28
2023-01-27T02:40:37.220Z,1018.35
2023-01-27T02:41:37.223Z,1018.28
2023-01-27T02:42:37.166Z,1018.31
2023-01-27T02:43:37.139Z,1018.27
2023-01-27T02:44:37.112Z,1018.31
2023-01-27T02:45:37.085Z,1018.33
2023-01-27T02:46:37.052Z,1018.29
2023-01-27T02:47:37.033Z,1018.29
2023-01-27T02:48:37.021Z,1018.24
2023-01-27T02:49:36.967Z,1018.22
2023-01-27T02:50:36.939Z,1018.25
2023-01-27T02:51:36.915Z,1018.25
2023-01-27T02:52:36.882Z,1018.26
2023-01-27T02:53:36.863Z,1018.27
2023-01-27T02:54:36.841Z,1018.25
2023-01-27T02:55:36.803Z,1018.29
2023-01-27T02:56:36.770Z,1018.24
2023-01-27T02:57:36.747Z,1018.23
2023-01-27T02:58:36.722Z,1018.24
2023-01-27T02:59:36.690Z,1018.27
2023-01-27T03:00:36.660Z,1018.27
2023-01-27T03:01:36.650Z,1018.25
2023-01-27T03:02:36.616Z,1018.26
2023-01-27T03:03:36.574Z,1018.30
2023-01-27T03:04:36.577Z,1018.32
2023-01-27T03:05:36.529Z,1018.31
2023-01-27T03:06:36.484Z,1018.29
2023-01-27T03:07:36.473Z,1018.29
2023-01-27T03:08:36.442Z,1018.26
2023-01-27T03:09:36.408Z,1018.31
2023-01-27T03:10:36.380Z,1018.34
2023-01-27T03:11:36.358Z,1018.28
2023-01-27T03:12:36.318Z,1018.33
2023-01-27T03:13:36.296Z,1018.26
2023-01-27T03:14:36.263Z,1018.25
2023-01-27T03:15:36.271Z,1018.28
2023-01-27T03:16:36.201Z,1018.27
2023-01-27T03:17:36.181Z,1018.21
2023-01-27T03:18:36.148Z,1018.21
2023-01-27T03:19:36.121Z,1018.29
2023-01-27T03:20:36.112Z,1018.25
2023-01-27T03:21:36.064Z,1018.27
2023-01-27T03:22:36.036Z,1018.28
2023-01-27T03:23:36.008Z,1018.25
2023-01-27T03:24:38.030Z,1018.28
2023-01-27T03:25:35.951Z,1018.29
2023-01-27T03:26:35.923Z,1018.26
2023-01-27T03:27:35.897Z,1018.28
2023-01-27T03:28:35.862Z,1018.30
2023-01-27T03:29:35.844Z,1018.32
2023-01-27T03:30:35.906Z,1018.30
2023-01-27T03:31:35.918Z,1018.31
2023-01-27T03:32:35.750Z,1018.29
2023-01-27T03:33:35.739Z,1018.36
2023-01-27T03:34:35.701Z,1018.29
2023-01-27T03:35:35.667Z,1018.33
2023-01-27T03:36:35.657Z,1018.32
2023-01-27T03:37:35.610Z,1018.31
2023-01-27T03:38:35.588Z,1018.31
2023-01-27T03:39:35.559Z,1018.30
2023-01-27T03:40:35.548Z,1018.34
2023-01-27T03:41:35.501Z,1018.33
2023-01-27T03:42:35.471Z,1018.37
2023-01-27T03:43:35.458Z,1018.32
2023-01-27T03:44:35.411Z,1018.29
2023-01-27T03:45:35.398Z,1018.29
2023-01-27T03:46:35.356Z,1018.29
2023-01-27T03:47:35.329Z,1018.30
2023-01-27T03:48:35.297Z,1018.31
2023-01-27T03:49:35.282Z,1018.30
2023-01-27T03:50:35.240Z,1018.31
2023-01-27T03:51:35.222Z,1018.33
2023-01-27T03:52:35.211Z,1018.30
2023-01-27T03:53:35.159Z,1018.36
2023-01-27T03:54:35.135Z,1018.35
2023-01-27T03:55:35.102Z,1018.37
2023-01-27T03:56:35.074Z,1018.39
2023-01-27T03:57:35.046Z,1018.39
2023-01-27T03:58:35.016Z,1018.40
2023-01-27T03:59:34.994Z,1018.41
2023-01-27T04:00:34.961Z,1018.41
2023-01-27T04:01:34.966Z,1018.39
2023-01-27T04:02:34.933Z,1018.45
2023-01-27T04:03:34.879Z,1018.44
2023-01-27T04:04:34.850Z,1018.41
2023-01-27T04:05:34.823Z,1018.43
2023-01-27T04:06:34.805Z,1018.41
2023-01-27T04:07:34.764Z,1018.41
2023-01-27T04:08:34.759Z,1018.37
2023-01-27T04:09:34.722Z,1018.38
2023-01-27T04:10:34.677Z,1018.34
2023-01-27T04:11:34.655Z,1018.36
2023-01-27T04:12:34.621Z,1018.36
2023-01-27T04:13:34.596Z,1018.37
2023-01-27T04:14:34.563Z,1018.40
2023-01-27T04:15:34.601Z,1018.40
2023-01-27T04:16:34.537Z,1018.42
2023-01-27T04:17:34.485Z,1018.47
2023-01-27T04:18:34.454Z,1018.43
2023-01-27T04:19:34.442Z,1018.40
2023-01-27T04:20:34.395Z,1018.42
2023-01-27T04:21:34.370Z,1018.42
2023-01-27T04:22:34.360Z,1018.44
2023-01-27T04:23:34.311Z,1018.42
2023-01-27T04:24:34.329Z,1018.43
2023-01-27T04:25:34.259Z,1018.41
2023-01-27T04:26:34.229Z,1018.38
2023-01-27T04:27:34.204Z,1018.38
2023-01-27T04:28:43.941Z,1018.44
2023-01-27T04:29:34.144Z,1018.43
2023-01-27T04:30:34.138Z,1018.38
2023-01-27T04:31:34.108Z,1018.42
2023-01-27T04:32:34.079Z,1018.42
2023-01-27T04:33:34.031Z,1018.41
2023-01-27T04:34:33.997Z,1018.48
2023-01-27T04:35:38.533Z,1018.43
2023-01-27T04:36:33.947Z,1018.44
2023-01-27T04:37:33.918Z,1018.47
2023-01-27T04:38:33.907Z,1018.46
2023-01-27T04:39:33.864Z,1018.49
2023-01-27T04:40:33.858Z,1018.47
2023-01-27T04:41:33.806Z,1018.46
2023-01-27T04:42:33.772Z,1018.50
2023-01-27T04:43:33.752Z,1018.45
2023-01-27T04:44:33.715Z,1018.52
2023-01-27T04:45:33.727Z,1018.49
2023-01-27T04:46:33.662Z,1018.47
2023-01-27T04:47:33.633Z,1018.50
2023-01-27T04:48:33.604Z,1018.48
2023-01-27T04:49:33.591Z,1018.53
2023-01-27T04:50:33.561Z,1018.50
2023-01-27T04:51:33.530Z,1018.50
2023-01-27T04:52:33.497Z,1018.51
2023-01-27T04:53:33.467Z,1018.53
2023-01-27T04:54:33.432Z,1018.57
2023-01-27T04:55:33.417Z,1018.49
2023-01-27T04:56:33.404Z,1018.52
2023-01-27T04:57:33.359Z,1018.52
2023-01-27T04:58:33.321Z,1018.58
2023-01-27T04:59:33.299Z,1018.59
2023-01-27T05:00:33.264Z,1018.60
2023-01-27T05:01:33.290Z,1018.59
2023-01-27T05:02:33.237Z,1018.60
2023-01-27T05:03:33.229Z,1018.62
2023-01-27T05:04:33.152Z,1018.61
2023-01-27T05:05:33.127Z,1018.68
2023-01-27T05:06:33.095Z,1018.70
2023-01-27T05:07:33.069Z,1018.68
2023-01-27T05:08:33.040Z,1018.66
2023-01-27T05:09:33.016Z,1018.71
2023-01-27T05:10:32.986Z,1018.69
2023-01-27T05:11:32.960Z,1018.67
2023-01-27T05:12:32.953Z,1018.76
2023-01-27T05:13:32.911Z,1018.73
2023-01-27T05:14:32.875Z,1018.75
2023-01-27T05:15:32.892Z,1018.80
2023-01-27T05:16:32.903Z,1018.76
2023-01-27T05:17:32.795Z,1018.74
2023-01-27T05:18:32.762Z,1018.75
2023-01-27T05:19:32.731Z,1018.75
2023-01-27T05:20:32.705Z,1018.74
2023-01-27T05:21:32.678Z,1018.75
2023-01-27T05:22:32.645Z,1018.76
2023-01-27T05:23:32.623Z,1018.75
2023-01-27T05:24:32.677Z,1018.78
2023-01-27T05:25:32.555Z,1018.74
2023-01-27T05:26:32.539Z,1018.75
2023-01-27T05:27:32.510Z,1018.75
2023-01-27T05:28:32.501Z,1018.72
2023-01-27T05:29:32.444Z,1018.73
2023-01-27T05:30:32.447Z,1018.76
2023-01-27T05:31:32.544Z,1018.74
2023-01-27T05:32:32.370Z,1018.77
2023-01-27T05:33:32.344Z,1018.80
2023-01-27T05:34:32.309Z,1018.81
2023-01-27T05:35:32.280Z,1018.78
2023-01-27T05:36:32.263Z,1018.82
2023-01-27T05:37:32.223Z,1018.83
2023-01-27T05:38:32.191Z,1018.82
2023-01-27T05:39:32.167Z,1018.79
2023-01-27T05:40:32.165Z,1018.80
2023-01-27T05:41:32.128Z,1018.83
2023-01-27T05:42:32.085Z,1018.81
2023-01-27T05:43:32.053Z,1018.83
2023-01-27T05:44:32.051Z,1018.84
2023-01-27T05:45:31.996Z,1018.83
2023-01-27T05:46:32.057Z,1018.79
2023-01-27T05:47:31.933Z,1018.81
2023-01-27T05:48:31.914Z,1018.87
2023-01-27T05:49:31.885Z,1018.85
2023-01-27T05:50:31.860Z,1018.90
2023-01-27T05:51:31.826Z,1018.97
2023-01-27T05:52:31.796Z,1018.95
2023-01-27T05:53:31.773Z,1018.96
2023-01-27T05:54:31.745Z,1018.93
2023-01-27T05:55:31.708Z,1018.94
2023-01-27T05:56:31.695Z,1018.98
2023-01-27T05:57:31.654Z,1018.95
2023-01-27T05:58:31.630Z,1018.95
2023-01-27T05:59:31.601Z,1018.95
2023-01-27T06:00:31.617Z,1018.99
2023-01-27T06:01:31.664Z,1018.96
2023-01-27T06:02:31.563Z,1018.95
2023-01-27T06:03:31.486Z,1018.99
2023-01-27T06:04:31.476Z,1019.01
2023-01-27T06:05:31.426Z,1019.02
2023-01-27T06:06:31.409Z,1018.98
2023-01-27T06:07:31.372Z,1019.01
2023-01-27T06:08:31.360Z,1019.06
2023-01-27T06:09:31.317Z,1019.03
2023-01-27T06:10:31.295Z,1019.05
2023-01-27T06:11:31.261Z,1019.05
2023-01-27T06:12:31.236Z,1019.03
2023-01-27T06:13:31.206Z,1019.04
2023-01-27T06:14:31.172Z,1019.08
2023-01-27T06:15:31.145Z,1019.09
2023-01-27T06:16:31.212Z,1019.10
2023-01-27T06:17:31.098Z,1019.11
2023-01-27T06:18:31.062Z,1019.12
2023-01-27T06:19:31.036Z,1019.11
2023-01-27T06:20:31.004Z,1019.12
2023-01-27T06:21:30.972Z,1019.17
2023-01-27T06:22:30.950Z,1019.15
2023-01-27T06:23:30.920Z,1019.14
2023-01-27T06:24:30.964Z,1019.16
2023-01-27T06:25:30.861Z,1019.12
2023-01-27T06:26:30.843Z,1019.11
2023-01-27T06:27:30.805Z,1019.09
2023-01-27T06:28:30.785Z,1019.07
2023-01-27T06:29:30.749Z,1019.04
2023-01-27T06:30:30.728Z,1019.06
2023-01-27T06:31:30.812Z,1019.04
2023-01-27T06:32:30.694Z,1019.03
2023-01-27T06:33:30.641Z,1019.07
2023-01-27T06:34:30.608Z,1019.05
2023-01-27T06:35:30.575Z,1019.06
2023-01-27T06:36:30.550Z,1019.06
2023-01-27T06:37:30.525Z,1019.10
2023-01-27T06:38:30.496Z,1019.05
2023-01-27T06:39:30.467Z,1019.11
2023-01-27T06:40:30.449Z,1019.08
2023-01-27T06:41:30.420Z,1019.09
2023-01-27T06:42:30.388Z,1019.13
2023-01-27T06:43:30.359Z,1019.16
2023-01-27T06:44:30.335Z,1019.17
2023-01-27T06:45:30.299Z,1019.15
2023-01-27T06:46:30.311Z,1019.15
2023-01-27T06:47:30.236Z,1019.12
2023-01-27T06:48:30.237Z,1019.18
2023-01-27T06:49:30.190Z,1019.16
2023-01-27T06:50:30.160Z,1019.16
2023-01-27T06:51:30.138Z,1019.18
2023-01-27T06:52:30.111Z,1019.18
2023-01-27T06:53:30.066Z,1019.19
2023-01-27T06:54:30.048Z,1019.20
2023-01-27T06:55:30.016Z,1019.23
2023-01-27T06:56:29.990Z,1019.21
2023-01-27T06:57:29.959Z,1019.25
2023-01-27T06:58:29.931Z,1019.24
2023-01-27T06:59:29.903Z,1019.27
2023-01-27T07:00:30.014Z,1019.28
2023-01-27T07:01:29.898Z,1019.34
2023-01-27T07:02:29.904Z,1019.36
2023-01-27T07:03:29.797Z,1019.34
2023-01-27T07:04:29.796Z,1019.29
2023-01-27T07:05:29.735Z,1019.36
2023-01-27T07:06:29.706Z,1019.40
2023-01-27T07:07:29.673Z,1019.36
2023-01-27T07:08:29.651Z,1019.37
2023-01-27T07:09:32.165Z,1019.36
2023-01-27T07:10:29.718Z,1019.36
2023-01-27T07:11:29.561Z,1019.38
2023-01-27T07:12:29.535Z,1019.39
2023-01-27T07:13:29.506Z,1019.40
2023-01-27T07:14:29.477Z,1019.43
2023-01-27T07:15:29.449Z,1019.41
2023-01-27T07:16:29.458Z,1019.41
2023-01-27T07:17:29.392Z,1019.42
2023-01-27T07:18:29.369Z,1019.48
2023-01-27T07:19:29.338Z,1019.48
2023-01-27T07:20:29.446Z,1019.52
2023-01-27T07:21:29.281Z,1019.50
2023-01-27T07:22:29.251Z,1019.52
2023-01-27T07:23:29.223Z,1019.53
2023-01-27T07:24:29.201Z,1019.53
2023-01-27T07:25:29.219Z,1019.58
2023-01-27T07:26:29.144Z,1019.58
2023-01-27T07:27:29.114Z,1019.58
2023-01-27T07:28:29.091Z,1019.62
2023-01-27T07:29:29.054Z,1019.59
2023-01-27T07:30:29.129Z,1019.62
2023-01-27T07:31:29.138Z,1019.64
2023-01-27T07:32:28.979Z,1019.66
2023-01-27T07:33:28.940Z,1019.61
2023-01-27T07:34:28.925Z,1019.65
2023-01-27T07:35:28.885Z,1019.63
2023-01-27T07:36:28.891Z,1019.66
2023-01-27T07:37:28.826Z,1019.70
2023-01-27T07:38:28.803Z,1019.63
2023-01-27T07:39:28.778Z,1019.62
2023-01-27T07:40:28.861Z,1019.64
2023-01-27T07:41:28.715Z,1019.61
2023-01-27T07:42:28.697Z,1019.63
2023-01-27T07:43:28.656Z,1019.66
2023-01-27T07:44:28.632Z,1019.68
2023-01-27T07:45:28.676Z,1019.66
2023-01-27T07:46:28.573Z,1019.64
2023-01-27T07:47:28.549Z,1019.67
2023-01-27T07:48:28.517Z,1019.73
2023-01-27T07:49:28.491Z,1019.69
2023-01-27T07:50:28.512Z,1019.71
2023-01-27T07:51:28.435Z,1019.73
2023-01-27T07:52:28.451Z,1019.77
2023-01-27T07:53:28.390Z,1019.78
2023-01-27T07:54:28.349Z,1019.79
2023-01-27T07:55:28.322Z,1019.78
2023-01-27T07:56:28.307Z,1019.79
2023-01-27T07:57:28.283Z,1019.78
2023-01-27T07:58:28.241Z,1019.80
2023-01-27T07:59:28.211Z,1019.80
2023-01-27T08:00:28.318Z,1019.85
2023-01-27T08:01:28.152Z,1019.82
2023-01-27T08:02:28.122Z,1019.85
2023-01-27T08:03:28.136Z,1019.88
2023-01-27T08:04:28.063Z,1019.91
2023-01-27T08:05:28.050Z,1019.94
2023-01-27T08:06:28.020Z,1019.94
2023-01-27T08:07:27.984Z,1019.98
2023-01-27T08:08:27.997Z,1020.02
2023-01-27T08:09:27.931Z,1020.02
2023-01-27T08:10:27.967Z,1019.99
2023-01-27T08:11:27.886Z,1020.08
2023-01-27T08:12:27.852Z,1020.08
2023-01-27T08:13:27.880Z,1020.04
2023-01-27T08:14:27.787Z,1020.09
2023-01-27T08:15:27.757Z,1020.02
2023-01-27T08:16:27.772Z,1020.10
2023-01-27T08:17:27.704Z,1020.04
2023-01-27T08:18:27.672Z,1020.10
2023-01-27T08:19:27.651Z,1020.07
2023-01-27T08:20:27.771Z,1020.09
2023-01-27T08:21:27.599Z,1020.07
2023-01-27T08:22:27.560Z,1020.08
2023-01-27T08:23:27.530Z,1020.05
2023-01-27T08:24:27.668Z,1020.03
2023-01-27T08:25:27.490Z,1020.02
2023-01-27T08:26:27.458Z,1020.01
2023-01-27T08:27:27.437Z,1020.06
2023-01-27T08:28:27.409Z,1020.03
2023-01-27T08:29:27.369Z,1020.01
2023-01-27T08:30:27.519Z,1020.03
2023-01-27T08:31:27.321Z,1020.01
2023-01-27T08:32:27.283Z,1020.03
2023-01-27T08:33:27.248Z,1020.03
2023-01-27T08:34:27.230Z,1020.14
2023-01-27T08:35:27.195Z,1020.13
2023-01-27T08:36:27.165Z,1020.07
2023-01-27T08:37:27.138Z,1020.09
2023-01-27T08:38:27.106Z,1020.07
2023-01-27T08:39:27.076Z,1020.09
2023-01-27T08:40:27.087Z,1020.07
2023-01-27T08:41:27.030Z,1020.13
2023-01-27T08:42:27.002Z,1020.13
2023-01-27T08:43:26.972Z,1020.14
2023-01-27T08:44:26.948Z,1020.16
2023-01-27T08:45:26.922Z,1020.16
2023-01-27T08:46:26.885Z,1020.17
2023-01-27T08:47:26.849Z,1020.24
2023-01-27T08:48:26.835Z,1020.24
2023-01-27T08:49:26.803Z,1020.21
2023-01-27T08:50:26.771Z,1020.19
2023-01-27T08:51:26.745Z,1020.21
2023-01-27T08:52:26.726Z,1020.23
2023-01-27T08:53:26.677Z,1020.33
2023-01-27T08:54:26.683Z,1020.29
2023-01-27T08:55:26.631Z,1020.28
2023-01-27T08:56:26.632Z,1020.30
2023-01-27T08:57:26.577Z,1020.31
2023-01-27T08:58:26.555Z,1020.34
2023-01-27T08:59:26.519Z,1020.27
2023-01-27T09:00:26.499Z,1020.27
2023-01-27T09:01:26.579Z,1020.26
2023-01-27T09:02:26.435Z,1020.34
2023-01-27T09:03:26.412Z,1020.36
2023-01-27T09:04:26.467Z,1020.34
2023-01-27T09:05:26.361Z,1020.37
2023-01-27T09:06:26.329Z,1020.38
2023-01-27T09:07:26.295Z,1020.42
2023-01-27T09:08:26.274Z,1020.36
2023-01-27T09:09:26.239Z,1020.37
2023-01-27T09:10:26.347Z,1020.36
2023-01-27T09:11:26.178Z,1020.38
2023-01-27T09:12:26.185Z,1020.39
2023-01-27T09:13:26.126Z,1020.38
2023-01-27T09:14:26.096Z,1020.38
2023-01-27T09:15:26.066Z,1020.48
2023-01-27T09:16:26.084Z,1020.48
2023-01-27T09:17:26.019Z,1020.50
2023-01-27T09:18:25.984Z,1020.54
2023-01-27T09:19:25.954Z,1020.55
2023-01-27T09:20:25.934Z,1020.57
2023-01-27T09:21:25.908Z,1020.57
2023-01-27T09:22:25.874Z,1020.56
2023-01-27T09:23:25.848Z,1020.53
2023-01-27T09:24:25.864Z,1020.60
2023-01-27T09:25:25.784Z,1020.62
2023-01-27T09:26:25.760Z,1020.63
2023-01-27T09:27:38.183Z,1020.62
2023-01-27T09:28:25.734Z,1020.65
2023-01-27T09:29:25.677Z,1020.61
2023-01-27T09:30:25.652Z,1020.56
2023-01-27T09:31:25.709Z,1020.58
2023-01-27T09:32:25.604Z,1020.59
2023-01-27T09:33:25.579Z,1020.63
2023-01-27T09:34:25.533Z,1020.59
2023-01-27T09:35:25.507Z,1020.58
2023-01-27T09:36:25.484Z,1020.64
2023-01-27T09:37:27.603Z,1020.59
2023-01-27T09:38:25.424Z,1020.59
2023-01-27T09:39:25.398Z,1020.61
2023-01-27T09:40:25.380Z,1020.63
2023-01-27T09:41:25.341Z,1020.62
2023-01-27T09:42:25.310Z,1020.63
2023-01-27T09:43:25.286Z,1020.63
2023-01-27T09:44:25.273Z,1020.64
2023-01-27T09:45:25.230Z,1020.69
2023-01-27T09:46:25.233Z,1020.71
2023-01-27T09:47:25.178Z,1020.68
2023-01-27T09:48:25.147Z,1020.69
2023-01-27T09:49:25.122Z,1020.65
2023-01-27T09:50:25.080Z,1020.68
2023-01-27T09:51:25.062Z,1020.70
2023-01-27T09:52:26.250Z,1020.65
2023-01-27T09:53:25.011Z,1020.65
2023-01-27T09:54:24.971Z,1020.62
2023-01-27T09:55:24.957Z,1020.67
2023-01-27T09:56:24.919Z,1020.67
2023-01-27T09:57:24.901Z,1020.65
2023-01-27T09:58:25.012Z,1020.74
2023-01-27T09:59:24.843Z,1020.72
2023-01-27T10:00:24.879Z,1020.70
2023-01-27T10:01:24.826Z,1020.70
2023-01-27T10:02:24.747Z,1020.71
2023-01-27T10:03:24.720Z,1020.69
2023-01-27T10:04:24.753Z,1020.73
2023-01-27T10:05:24.674Z,1020.74
2023-01-27T10:06:24.636Z,1020.74
2023-01-27T10:07:24.619Z,1020.67
2023-01-27T10:08:24.590Z,1020.73
2023-01-27T10:09:24.557Z,1020.72
2023-01-27T10:10:24.530Z,1020.69
2023-01-27T10:11:24.500Z,1020.68
2023-01-27T10:12:24.477Z,1020.67
2023-01-27T10:13:24.443Z,1020.69
2023-01-27T10:14:24.413Z,1020.73
2023-01-27T10:15:24.384Z,1020.71
2023-01-27T10:16:24.432Z,1020.74
2023-01-27T10:24:51.628Z,1020.69
2023-01-27T10:58:41.764Z,1020.87
2023-01-27T10:59:41.719Z,1020.84
2023-01-27T11:01:17.707Z,1020.81
2023-01-27T11:01:41.727Z,1020.84
2023-01-27T11:02:41.629Z,1020.80
2023-01-27T11:03:41.702Z,1020.79
2023-01-27T11:04:41.574Z,1020.78
2023-01-27T11:05:41.547Z,1020.78
2023-01-27T11:06:41.521Z,1020.75
2023-01-27T11:07:41.488Z,1020.73
2023-01-27T11:08:41.459Z,1020.78
2023-01-27T11:09:41.434Z,1020.73
2023-01-27T11:10:41.408Z,1020.77
2023-01-27T11:11:41.382Z,1020.75
2023-01-27T11:12:41.357Z,1020.78
2023-01-27T11:13:41.330Z,1020.77
2023-01-27T11:14:41.317Z,1020.81
2023-01-27T11:15:41.263Z,1020.77
2023-01-27T11:16:41.291Z,1020.80
2023-01-27T11:17:41.215Z,1020.82
2023-01-27T11:18:41.182Z,1020.82
2023-01-27T11:19:41.154Z,1020.79
2023-01-27T11:20:41.133Z,1020.79
2023-01-27T11:21:41.097Z,1020.73
2023-01-27T11:22:41.083Z,1020.72
2023-01-27T11:23:41.061Z,1020.74
2023-01-27T11:24:41.069Z,1020.72
2023-01-27T11:25:40.996Z,1020.73
2023-01-27T11:26:40.962Z,1020.65
2023-01-27T11:27:40.933Z,1020.70
2023-01-27T11:28:40.911Z,1020.68
2023-01-27T11:29:40.873Z,1020.69
2023-01-27T11:30:40.872Z,1020.62
2023-01-27T11:31:40.892Z,1020.67
2023-01-27T11:32:40.801Z,1020.69
2023-01-27T11:33:40.777Z,1020.62
2023-01-27T11:34:40.748Z,1020.71
2023-01-27T11:35:40.713Z,1020.72
2023-01-27T11:36:40.688Z,1020.73
2023-01-27T11:37:40.684Z,1020.69
2023-01-27T11:38:40.630Z,1020.66
2023-01-27T11:39:40.600Z,1020.63
2023-01-27T11:40:40.571Z,1020.66
2023-01-27T11:41:40.554Z,1020.60
2023-01-27T11:42:40.519Z,1020.63
2023-01-27T11:43:40.494Z,1020.63
2023-01-27T11:44:40.465Z,1020.61
2023-01-27T11:45:40.478Z,1020.65
2023-01-27T11:46:40.432Z,1020.64
2023-01-27T11:47:40.377Z,1020.60
2023-01-27T11:48:40.357Z,1020.64
2023-01-27T11:49:40.316Z,1020.58
2023-01-27T11:50:40.295Z,1020.61
2023-01-27T11:51:40.280Z,1020.60
2023-01-27T11:52:40.240Z,1020.65
2023-01-27T11:53:40.215Z,1020.61
2023-01-27T11:54:40.189Z,1020.63
2023-01-27T11:55:40.157Z,1020.62
2023-01-27T11:56:40.130Z,1020.64
2023-01-27T11:57:40.098Z,1020.62
2023-01-27T11:58:40.079Z,1020.61
2023-01-27T11:59:40.044Z,1020.62
2023-01-27T12:00:41.467Z,1020.62
2023-01-27T12:01:39.987Z,1020.61
2023-01-27T12:02:39.983Z,1020.60
2023-01-27T12:03:39.970Z,1020.57
2023-01-27T12:04:39.977Z,1020.63
2023-01-27T12:05:39.879Z,1020.62
2023-01-27T12:06:39.850Z,1020.62
2023-01-27T12:07:39.824Z,1020.67
2023-01-27T12:08:39.801Z,1020.65
2023-01-27T12:13:05.511Z,1020.64
2023-01-27T12:14:05.503Z,1020.58
2023-01-27T12:15:05.461Z,1020.60
2023-01-27T12:19:31.348Z,1020.53
2023-01-27T12:20:31.250Z,1020.56
2023-01-27T12:21:31.218Z,1020.56
2023-01-27T12:22:31.184Z,1020.57
2023-01-27T12:23:31.164Z,1020.52
2023-01-27T12:24:31.221Z,1020.54
2023-01-27T12:25:31.120Z,1020.54
2023-01-27T12:26:31.089Z,1020.52
2023-01-27T12:27:31.059Z,1020.50
2023-01-27T12:28:31.016Z,1020.48
2023-01-27T12:33:23.458Z,1020.53
2023-01-27T12:34:23.414Z,1020.55
2023-01-27T12:38:19.783Z,1020.50
2023-01-27T12:39:19.727Z,1020.52
2023-01-27T12:40:19.707Z,1020.51
2023-01-27T12:41:19.663Z,1020.43
2023-01-27T12:42:19.640Z,1020.45
2023-01-27T12:43:19.617Z,1020.49
2023-01-27T12:47:45.427Z,1020.47
2023-01-27T12:48:45.395Z,1020.38
2023-01-27T12:49:45.376Z,1020.37
2023-01-27T12:50:45.351Z,1020.37
2023-01-27T12:51:45.346Z,1020.35
2023-01-27T12:52:45.294Z,1020.33
2023-01-27T12:53:45.294Z,1020.32
2023-01-27T12:54:45.229Z,1020.29
2023-01-27T12:55:45.213Z,1020.31
2023-01-27T12:56:45.180Z,1020.32
2023-01-27T12:57:45.156Z,1020.26
2023-01-27T12:58:45.124Z,1020.29
2023-01-27T12:59:45.102Z,1020.24
2023-01-27T13:00:45.089Z,1020.27
2023-01-27T13:01:45.171Z,1020.31
2023-01-27T13:02:45.023Z,1020.30